DLH21 KJFK-KATL
Flight info
| Callsign | DLH21 |
|---|---|
| Flight time | N/A |
| Altitude | 40000 |
| Route | RBV Q430 BYRDD J48 MOL FLASK OZZZI2 |
| Aircraft | A332/H-SDE3GHIJ2J3J5M1RVWXY/LB2D1 |
Departure
| Time | 2026-05-08 18:15 |
|---|---|
| Airport | John F. Kennedy International Airport (KJFK) |
Arrival
| Time | N/A |
|---|---|
| Airport | Hartsfield Jackson Atlanta International Airport (KATL) |
| Time | Latitude | Longitude | Altitude | Speed | Heading |
|---|---|---|---|---|---|
| 2026-05-08 17:48 | 40.64528 | -73.77382 | 24 ft | 0 kts | 355° |
| 2026-05-08 17:59 | 40.64515 | -73.77381 | 30 ft | 2 kts | 359° |
| 2026-05-08 17:59 | 40.64498 | -73.77382 | 30 ft | 2 kts | 7° |
| 2026-05-08 17:59 | 40.64482 | -73.77387 | 28 ft | 2 kts | 34° |
| 2026-05-08 18:00 | 40.64473 | -73.77404 | 29 ft | 2 kts | 85° |
| 2026-05-08 18:00 | 40.64473 | -73.77411 | 29 ft | 0 kts | 89° |
| 2026-05-08 18:03 | 40.64473 | -73.77410 | 29 ft | 1 kts | 89° |
| 2026-05-08 18:03 | 40.64473 | -73.77390 | 29 ft | 4 kts | 89° |
| 2026-05-08 18:03 | 40.64473 | -73.77344 | 28 ft | 7 kts | 89° |
| 2026-05-08 18:03 | 40.64473 | -73.77271 | 28 ft | 9 kts | 90° |
| 2026-05-08 18:04 | 40.64460 | -73.77207 | 26 ft | 0 kts | 113° |
| 2026-05-08 18:06 | 40.64457 | -73.77199 | 29 ft | 2 kts | 116° |
| 2026-05-08 18:06 | 40.64448 | -73.77168 | 29 ft | 5 kts | 107° |
| 2026-05-08 18:06 | 40.64438 | -73.77149 | 28 ft | 2 kts | 142° |
| 2026-05-08 18:07 | 40.64418 | -73.77139 | 27 ft | 4 kts | 166° |
| 2026-05-08 18:07 | 40.64384 | -73.77145 | 25 ft | 6 kts | 200° |
| 2026-05-08 18:07 | 40.64339 | -73.77177 | 26 ft | 9 kts | 211° |
| 2026-05-08 18:07 | 40.64280 | -73.77224 | 26 ft | 11 kts | 211° |
| 2026-05-08 18:08 | 40.64210 | -73.77277 | 26 ft | 13 kts | 211° |
| 2026-05-08 18:08 | 40.64128 | -73.77343 | 25 ft | 15 kts | 211° |
| 2026-05-08 18:08 | 40.64041 | -73.77367 | 26 ft | 12 kts | 153° |
| 2026-05-08 18:08 | 40.63998 | -73.77305 | 26 ft | 0 kts | 129° |
| 2026-05-08 18:09 | 40.63993 | -73.77296 | 27 ft | 3 kts | 129° |
| 2026-05-08 18:09 | 40.63964 | -73.77249 | 29 ft | 10 kts | 128° |
| 2026-05-08 18:09 | 40.63915 | -73.77164 | 29 ft | 13 kts | 127° |
| 2026-05-08 18:10 | 40.63857 | -73.77063 | 28 ft | 15 kts | 127° |
| 2026-05-08 18:10 | 40.63783 | -73.76942 | 30 ft | 18 kts | 137° |
| 2026-05-08 18:10 | 40.63663 | -73.76917 | 27 ft | 19 kts | 179° |
| 2026-05-08 18:10 | 40.63523 | -73.76922 | 26 ft | 21 kts | 184° |
| 2026-05-08 18:11 | 40.63369 | -73.76943 | 25 ft | 23 kts | 185° |
| 2026-05-08 18:11 | 40.63201 | -73.76949 | 30 ft | 25 kts | 181° |
| 2026-05-08 18:11 | 40.63054 | -73.77003 | 28 ft | 9 kts | 210° |
| 2026-05-08 18:11 | 40.62990 | -73.77054 | 25 ft | 12 kts | 211° |
| 2026-05-08 18:12 | 40.62914 | -73.77115 | 29 ft | 14 kts | 211° |
| 2026-05-08 18:12 | 40.62837 | -73.77190 | 30 ft | 13 kts | 242° |
| 2026-05-08 18:12 | 40.62854 | -73.77295 | 26 ft | 12 kts | 301° |
| 2026-05-08 18:12 | 40.62894 | -73.77386 | 28 ft | 11 kts | 300° |
| 2026-05-08 18:13 | 40.62937 | -73.77480 | 28 ft | 13 kts | 302° |
| 2026-05-08 18:13 | 40.62981 | -73.77578 | 28 ft | 13 kts | 300° |
| 2026-05-08 18:13 | 40.63026 | -73.77677 | 29 ft | 13 kts | 300° |
| 2026-05-08 18:13 | 40.63071 | -73.77778 | 30 ft | 13 kts | 300° |
| 2026-05-08 18:14 | 40.63121 | -73.77888 | 29 ft | 15 kts | 302° |
| 2026-05-08 18:14 | 40.63210 | -73.78080 | 26 ft | 50 kts | 300° |
| 2026-05-08 18:14 | 40.63513 | -73.78746 | 27 ft | 118 kts | 301° |
| 2026-05-08 18:14 | 40.64008 | -73.79854 | 385 ft | 152 kts | 299° |
| 2026-05-08 18:15 | 40.64500 | -73.81113 | 1303 ft | 162 kts | 282° |
| 2026-05-08 18:15 | 40.64285 | -73.82650 | 1918 ft | 188 kts | 240° |
| 2026-05-08 18:15 | 40.63410 | -73.83978 | 2926 ft | 195 kts | 230° |
| 2026-05-08 18:15 | 40.62437 | -73.85237 | 3973 ft | 198 kts | 229° |
| 2026-05-08 18:16 | 40.61454 | -73.86521 | 5047 ft | 200 kts | 230° |
| 2026-05-08 18:16 | 40.60379 | -73.87705 | 6112 ft | 206 kts | 216° |
| 2026-05-08 18:16 | 40.58968 | -73.88266 | 7074 ft | 226 kts | 189° |
| 2026-05-08 18:16 | 40.57292 | -73.87831 | 7576 ft | 266 kts | 166° |
| 2026-05-08 18:17 | 40.55547 | -73.86830 | 8219 ft | 286 kts | 161° |
| 2026-05-08 18:17 | 40.53654 | -73.85871 | 9098 ft | 289 kts | 173° |
| 2026-05-08 18:17 | 40.51700 | -73.85421 | 10022 ft | 290 kts | 180° |
| 2026-05-08 18:17 | 40.49654 | -73.85384 | 10582 ft | 301 kts | 195° |
| 2026-05-08 18:18 | 40.47615 | -73.86268 | 10905 ft | 311 kts | 218° |
| 2026-05-08 18:18 | 40.46012 | -73.88150 | 11372 ft | 317 kts | 236° |
| 2026-05-08 18:18 | 40.44730 | -73.90518 | 12163 ft | 319 kts | 244° |
| 2026-05-08 18:18 | 40.43634 | -73.93099 | 13115 ft | 321 kts | 249° |
| 2026-05-08 18:19 | 40.42642 | -73.95694 | 14019 ft | 324 kts | 250° |
| 2026-05-08 18:19 | 40.41645 | -73.98355 | 14883 ft | 327 kts | 250° |
| 2026-05-08 18:19 | 40.40617 | -74.01035 | 15679 ft | 331 kts | 249° |
| 2026-05-08 18:19 | 40.39548 | -74.03733 | 16466 ft | 336 kts | 248° |
| 2026-05-08 18:20 | 40.38441 | -74.06450 | 17257 ft | 340 kts | 247° |
| 2026-05-08 18:20 | 40.37304 | -74.09185 | 18047 ft | 344 kts | 247° |
| 2026-05-08 18:20 | 40.36143 | -74.11946 | 18738 ft | 347 kts | 246° |
| 2026-05-08 18:20 | 40.34970 | -74.14725 | 19414 ft | 350 kts | 246° |
| 2026-05-08 18:21 | 40.33788 | -74.17519 | 20104 ft | 352 kts | 247° |
| 2026-05-08 18:21 | 40.32599 | -74.20330 | 20781 ft | 354 kts | 247° |
| 2026-05-08 18:21 | 40.31402 | -74.23164 | 21435 ft | 356 kts | 247° |
| 2026-05-08 18:21 | 40.30198 | -74.26014 | 22066 ft | 359 kts | 247° |
| 2026-05-08 18:22 | 40.28984 | -74.28890 | 22707 ft | 362 kts | 247° |
| 2026-05-08 18:22 | 40.27759 | -74.31787 | 23337 ft | 364 kts | 247° |
| 2026-05-08 18:22 | 40.26528 | -74.34696 | 23882 ft | 366 kts | 248° |
| 2026-05-08 18:22 | 40.25291 | -74.37616 | 24385 ft | 368 kts | 248° |
| 2026-05-08 18:23 | 40.24043 | -74.40560 | 24866 ft | 371 kts | 247° |
| 2026-05-08 18:23 | 40.22786 | -74.43526 | 25360 ft | 374 kts | 247° |
| 2026-05-08 18:23 | 40.21583 | -74.46549 | 25818 ft | 374 kts | 251° |
| 2026-05-08 18:23 | 40.20648 | -74.49717 | 26315 ft | 372 kts | 257° |
| 2026-05-08 18:24 | 40.20054 | -74.53006 | 26778 ft | 372 kts | 264° |
| 2026-05-08 18:24 | 40.19671 | -74.56345 | 27252 ft | 373 kts | 265° |
| 2026-05-08 18:24 | 40.19368 | -74.59733 | 27716 ft | 376 kts | 266° |
| 2026-05-08 18:24 | 40.19106 | -74.63145 | 28180 ft | 378 kts | 267° |
| 2026-05-08 18:25 | 40.18857 | -74.66580 | 28641 ft | 381 kts | 267° |
| 2026-05-08 18:25 | 40.18692 | -74.68870 | 28948 ft | 383 kts | 267° |
| 2026-05-08 18:25 | 40.18435 | -74.72347 | 29393 ft | 386 kts | 267° |
| 2026-05-08 18:25 | 40.18169 | -74.75850 | 29836 ft | 389 kts | 266° |
| 2026-05-08 18:26 | 40.17894 | -74.79377 | 30236 ft | 391 kts | 266° |
| 2026-05-08 18:26 | 40.17612 | -74.82927 | 30637 ft | 393 kts | 266° |
| 2026-05-08 18:26 | 40.17325 | -74.86489 | 31045 ft | 395 kts | 266° |
| 2026-05-08 18:26 | 40.17035 | -74.90069 | 31447 ft | 396 kts | 266° |
| 2026-05-08 18:27 | 40.16743 | -74.93643 | 31997 ft | 394 kts | 266° |
| 2026-05-08 18:27 | 40.16550 | -74.95992 | 32390 ft | 392 kts | 266° |
| 2026-05-08 18:27 | 40.16162 | -75.00704 | 33208 ft | 388 kts | 266° |
| 2026-05-08 18:27 | 40.15874 | -75.04198 | 33759 ft | 386 kts | 267° |
| 2026-05-08 18:28 | 40.15587 | -75.07672 | 34241 ft | 383 kts | 267° |
| 2026-05-08 18:28 | 40.15302 | -75.11117 | 34737 ft | 380 kts | 267° |
| 2026-05-08 18:28 | 40.15018 | -75.14546 | 35076 ft | 380 kts | 267° |
| 2026-05-08 18:28 | 40.14733 | -75.17983 | 35394 ft | 381 kts | 267° |
| 2026-05-08 18:29 | 40.14446 | -75.21427 | 35727 ft | 381 kts | 266° |
| 2026-05-08 18:29 | 40.14157 | -75.24875 | 36074 ft | 381 kts | 266° |
| 2026-05-08 18:29 | 40.13868 | -75.28318 | 36406 ft | 382 kts | 266° |
| 2026-05-08 18:29 | 40.13577 | -75.31763 | 36736 ft | 382 kts | 266° |
| 2026-05-08 18:30 | 40.13284 | -75.35215 | 37079 ft | 382 kts | 266° |
| 2026-05-08 18:30 | 40.12991 | -75.38660 | 37423 ft | 382 kts | 266° |
| 2026-05-08 18:30 | 40.12696 | -75.42103 | 37741 ft | 382 kts | 266° |
| 2026-05-08 18:30 | 40.12400 | -75.45550 | 38082 ft | 381 kts | 266° |
| 2026-05-08 18:31 | 40.12104 | -75.48994 | 38404 ft | 381 kts | 266° |
| 2026-05-08 18:31 | 40.11807 | -75.52434 | 38706 ft | 381 kts | 266° |
| 2026-05-08 18:31 | 40.11508 | -75.55879 | 38939 ft | 382 kts | 266° |
| 2026-05-08 18:31 | 40.11209 | -75.59330 | 39150 ft | 383 kts | 265° |
| 2026-05-08 18:32 | 40.10908 | -75.62782 | 39358 ft | 383 kts | 265° |
| 2026-05-08 18:32 | 40.10602 | -75.66245 | 39589 ft | 384 kts | 264° |
| 2026-05-08 18:32 | 40.10141 | -75.69640 | 39801 ft | 386 kts | 260° |
| 2026-05-08 18:32 | 40.09377 | -75.73018 | 39937 ft | 391 kts | 254° |
| 2026-05-08 18:33 | 40.06778 | -75.79378 | 39964 ft | 404 kts | 242° |
| 2026-05-08 18:33 | 40.03323 | -75.85229 | 39921 ft | 409 kts | 238° |
| 2026-05-08 18:34 | 39.99685 | -75.90923 | 39961 ft | 408 kts | 238° |
| 2026-05-08 18:34 | 39.96068 | -75.96602 | 39963 ft | 406 kts | 238° |
| 2026-05-08 18:35 | 39.92489 | -76.02298 | 39967 ft | 406 kts | 238° |
| 2026-05-08 18:35 | 39.88926 | -76.07997 | 39966 ft | 406 kts | 238° |
| 2026-05-08 18:36 | 39.85357 | -76.13700 | 39962 ft | 406 kts | 238° |
| 2026-05-08 18:36 | 39.82392 | -76.18426 | 39965 ft | 406 kts | 238° |
| 2026-05-08 18:37 | 39.79143 | -76.23596 | 39968 ft | 406 kts | 238° |
| 2026-05-08 18:37 | 39.75560 | -76.29285 | 39970 ft | 407 kts | 238° |
| 2026-05-08 18:38 | 39.71976 | -76.34964 | 39975 ft | 407 kts | 238° |
| 2026-05-08 18:38 | 39.68388 | -76.40640 | 39976 ft | 407 kts | 238° |
| 2026-05-08 18:39 | 39.64799 | -76.46308 | 39978 ft | 405 kts | 238° |
| 2026-05-08 18:39 | 39.61224 | -76.51942 | 39969 ft | 404 kts | 238° |
| 2026-05-08 18:40 | 39.57652 | -76.57563 | 39980 ft | 404 kts | 238° |
| 2026-05-08 18:40 | 39.54081 | -76.63175 | 39977 ft | 403 kts | 238° |
| 2026-05-08 18:41 | 39.50507 | -76.68780 | 39986 ft | 403 kts | 238° |
| 2026-05-08 18:41 | 39.46933 | -76.74372 | 39979 ft | 402 kts | 238° |
| 2026-05-08 18:42 | 39.43380 | -76.79918 | 39997 ft | 399 kts | 238° |
| 2026-05-08 18:42 | 39.39843 | -76.85436 | 39996 ft | 398 kts | 238° |
| 2026-05-08 18:43 | 39.36306 | -76.90947 | 40008 ft | 399 kts | 238° |
| 2026-05-08 18:43 | 39.32755 | -76.96469 | 40016 ft | 399 kts | 238° |
| 2026-05-08 18:44 | 39.29204 | -77.01978 | 40001 ft | 399 kts | 238° |
| 2026-05-08 18:44 | 39.25662 | -77.07460 | 40021 ft | 396 kts | 238° |
| 2026-05-08 18:45 | 39.22133 | -77.12914 | 40018 ft | 395 kts | 238° |
| 2026-05-08 18:45 | 39.18609 | -77.18356 | 40016 ft | 395 kts | 238° |
| 2026-05-08 18:46 | 39.15080 | -77.23796 | 40015 ft | 396 kts | 238° |
| 2026-05-08 18:46 | 39.11546 | -77.29232 | 40018 ft | 396 kts | 238° |
| 2026-05-08 18:47 | 39.08016 | -77.34649 | 40005 ft | 394 kts | 239° |
| 2026-05-08 18:47 | 39.04504 | -77.40031 | 40009 ft | 392 kts | 239° |
| 2026-05-08 18:48 | 39.00996 | -77.45403 | 40006 ft | 392 kts | 239° |
| 2026-05-08 18:48 | 38.97509 | -77.50733 | 40007 ft | 392 kts | 239° |
| 2026-05-08 18:49 | 38.93997 | -77.56091 | 40010 ft | 392 kts | 239° |
| 2026-05-08 18:49 | 38.90483 | -77.61442 | 39999 ft | 392 kts | 239° |
| 2026-05-08 18:50 | 38.86967 | -77.66786 | 40007 ft | 391 kts | 239° |
| 2026-05-08 18:50 | 38.83451 | -77.72122 | 40014 ft | 392 kts | 239° |
| 2026-05-08 18:51 | 38.79929 | -77.77457 | 40011 ft | 392 kts | 239° |
| 2026-05-08 18:51 | 38.76406 | -77.82786 | 39998 ft | 391 kts | 239° |
| 2026-05-08 18:52 | 38.72889 | -77.88096 | 39999 ft | 391 kts | 239° |
| 2026-05-08 18:52 | 38.69365 | -77.93411 | 39998 ft | 391 kts | 239° |
| 2026-05-08 18:53 | 38.65834 | -77.98724 | 40012 ft | 391 kts | 239° |
| 2026-05-08 18:53 | 38.62310 | -78.04018 | 40010 ft | 391 kts | 239° |
| 2026-05-08 18:54 | 38.58786 | -78.09302 | 40013 ft | 391 kts | 239° |
| 2026-05-08 18:54 | 38.55256 | -78.14588 | 40006 ft | 391 kts | 239° |
| 2026-05-08 18:55 | 38.49964 | -78.22495 | 39997 ft | 390 kts | 238° |
| 2026-05-08 18:56 | 38.46438 | -78.27752 | 39996 ft | 389 kts | 238° |
| 2026-05-08 18:56 | 38.42916 | -78.32995 | 40002 ft | 389 kts | 238° |
| 2026-05-08 18:57 | 38.39391 | -78.38238 | 40011 ft | 389 kts | 238° |
| 2026-05-08 18:57 | 38.35861 | -78.43475 | 40017 ft | 390 kts | 238° |
| 2026-05-08 18:58 | 38.32354 | -78.48670 | 39949 ft | 389 kts | 238° |
| 2026-05-08 18:58 | 38.28837 | -78.53866 | 40020 ft | 386 kts | 238° |
| 2026-05-08 18:59 | 38.25339 | -78.59028 | 40023 ft | 384 kts | 238° |
| 2026-05-08 18:59 | 38.21852 | -78.64173 | 40022 ft | 384 kts | 238° |
| 2026-05-08 19:00 | 38.18927 | -78.68484 | 40027 ft | 384 kts | 238° |
| 2026-05-08 19:00 | 38.14861 | -78.74462 | 40029 ft | 386 kts | 238° |
| 2026-05-08 19:01 | 38.11353 | -78.79615 | 39990 ft | 386 kts | 239° |
| 2026-05-08 19:01 | 38.07854 | -78.84734 | 40017 ft | 382 kts | 239° |
| 2026-05-08 19:02 | 38.04378 | -78.89808 | 40019 ft | 381 kts | 239° |